Time;durP1;ratioP1;P1;durP2;ratioP2;P2;SDS_P1;SDS_P2;PMS_P1;PMS_P2;Temp;Humidity;BMP_temperature;BMP_pressure;BME280_temperature;BME280_humidity;BME280_pressure;Samples;Min_cycle;Max_cycle;Signal;HPM_P1;HPM_P2
2023/12/25 00:01:05;;;;;;;20.67;11.23;;;;;;;-142.91;100.00;56616.03;5074546;28;20199;-74
2023/12/25 00:03:32;;;;;;;21.77;12.20;;;;;;;23.25;100.00;56616.03;5064806;28;20740;-74
2023/12/25 00:05:58;;;;;;;30.70;13.65;;;;;;;-142.91;100.00;56616.03;5053978;28;20753;-74
2023/12/25 00:08:25;;;;;;;24.13;12.98;;;;;;;-142.91;100.00;56616.03;5073885;28;20207;-74
2023/12/25 00:10:51;;;;;;;28.13;13.60;;;;;;;;;;5054709;28;20310;-75
2023/12/25 00:13:18;;;;;;;31.50;16.83;;;;;;;-142.91;100.00;56616.03;5071269;28;20217;-75
2023/12/25 00:15:45;;;;;;;28.17;13.73;;;;;;;23.25;100.00;56616.03;5069961;28;20289;-73
2023/12/25 00:18:12;;;;;;;29.60;13.30;;;;;;;;;;5070665;28;20291;-74
2023/12/25 00:20:40;;;;;;;26.42;13.82;;;;;;;;;;5069550;28;20751;-75
2023/12/25 00:23:06;;;;;;;25.40;12.48;;;;;;;;;;5070480;28;20206;-74
2023/12/25 00:25:33;;;;;;;18.92;11.48;;;;;;;-142.91;100.00;56616.03;5068737;28;20285;-74
2023/12/25 00:28:00;;;;;;;33.20;14.93;;;;;;;-142.91;100.00;56616.03;5069652;28;20742;-75
2023/12/25 00:30:26;;;;;;;25.50;13.02;;;;;;;;;;5070615;28;20282;-74
2023/12/25 00:32:52;;;;;;;24.77;12.07;;;;;;;;;;5070167;28;20236;-74
2023/12/25 00:35:20;;;;;;;31.42;14.48;;;;;;;;;;5070554;28;20731;-73
2023/12/25 00:37:47;;;;;;;25.25;13.32;;;;;;;;;;5073672;28;20281;-74
2023/12/25 00:40:13;;;;;;;27.95;13.20;;;;;;;;;;5070709;28;20229;-74
2023/12/25 00:42:40;;;;;;;24.42;12.95;;;;;;;-142.91;100.00;56616.03;5070313;28;20234;-73
2023/12/25 00:45:06;;;;;;;34.72;14.77;;;;;;;;;;5090996;28;20758;-73
2023/12/25 00:47:33;;;;;;;27.33;13.55;;;;;;;-142.91;100.00;56616.03;5091038;28;20281;-73
2023/12/25 00:50:00;;;;;;;23.50;12.68;;;;;;;-142.91;100.00;56616.03;5091155;28;20288;-72
2023/12/25 00:52:27;;;;;;;23.15;12.85;;;;;;;;;;5091279;28;20264;-73
2023/12/25 00:54:54;;;;;;;32.00;15.00;;;;;;;;;;5088278;28;20293;-73
2023/12/25 00:57:20;;;;;;;39.47;14.13;;;;;;;;;;5090644;28;20294;-72
2023/12/25 00:59:46;;;;;;;24.92;13.80;;;;;;;;;;5090447;28;20297;-73
2023/12/25 01:02:14;;;;;;;29.40;15.55;;;;;;;-142.91;100.00;56616.03;5090496;28;20293;-72
2023/12/25 01:04:41;;;;;;;26.25;12.48;;;;;;;;;;5088796;28;20236;-72
2023/12/25 01:07:07;;;;;;;24.73;10.70;;;;;;;;;;5090246;28;20289;-73
2023/12/25 01:09:35;;;;;;;23.92;13.40;;;;;;;-142.91;100.00;56616.03;5090197;28;20284;-72
2023/12/25 01:12:02;;;;;;;20.60;12.20;;;;;;;;;;5089869;28;20418;-73
2023/12/25 01:14:28;;;;;;;23.70;12.82;;;;;;;;;;5090793;28;20284;-73
2023/12/25 01:16:55;;;;;;;22.80;12.00;;;;;;;;;;5090017;28;20618;-73
2023/12/25 01:19:21;;;;;;;18.90;9.45;;;;;;;;;;5090216;28;20292;-72
2023/12/25 01:21:47;;;;;;;21.20;10.20;;;;;;;;;;5089999;28;20777;-71
2023/12/25 01:24:14;;;;;;;22.52;12.52;;;;;;;;;;5089593;28;20755;-72
2023/12/25 01:26:41;;;;;;;18.42;11.10;;;;;;;;;;5090305;28;20288;-72
2023/12/25 01:29:08;;;;;;;21.13;10.75;;;;;;;-142.91;100.00;56616.03;5089890;28;20391;-72
2023/12/25 01:31:35;;;;;;;27.13;12.50;;;;;;;;;;5089538;28;20311;-72
2023/12/25 01:34:02;;;;;;;20.95;11.02;;;;;;;;;;5090000;28;20197;-73
2023/12/25 01:36:28;;;;;;;16.67;8.77;;;;;;;;;;5089555;28;20288;-72
2023/12/25 01:38:55;;;;;;;18.27;8.90;;;;;;;;;;5090059;28;20650;-73
2023/12/25 01:41:21;;;;;;;19.02;9.50;;;;;;;;;;5089805;28;20288;-73
2023/12/25 01:43:49;;;;;;;17.60;8.20;;;;;;;;;;5089309;28;20283;-73
2023/12/25 01:46:15;;;;;;;17.73;9.50;;;;;;;;;;5066137;28;20723;-73
2023/12/25 01:48:42;;;;;;;22.67;11.40;;;;;;;;;;5069364;28;20289;-73
2023/12/25 01:51:09;;;;;;;26.20;12.27;;;;;;;-142.91;100.00;56616.03;5069685;28;20226;-73
2023/12/25 01:53:36;;;;;;;18.50;10.45;;;;;;;-142.91;100.00;56616.03;5081885;28;20289;-73
2023/12/25 01:56:02;;;;;;;22.50;11.27;;;;;;;;;;5065126;28;20285;-73
2023/12/25 01:58:28;;;;;;;20.23;10.05;;;;;;;;;;5075322;28;20289;-74
2023/12/25 02:00:56;;;;;;;15.57;8.25;;;;;;;;;;5073879;28;20290;-73
2023/12/25 02:03:23;;;;;;;22.95;9.88;;;;;;;;;;5067871;28;20285;-73
2023/12/25 02:05:50;;;;;;;9.05;6.90;;;;;;;-142.91;100.00;56616.03;5067536;28;20663;-73
2023/12/25 02:08:18;;;;;;;13.15;6.88;;;;;;;;;;5067921;28;20281;-74
2023/12/25 02:10:44;;;;;;;21.35;8.48;;;;;;;;;;5070358;28;20783;-73
2023/12/25 02:13:10;;;;;;;18.35;8.70;;;;;;;;;;5071303;28;20237;-74
2023/12/25 02:15:39;;;;;;;10.38;6.80;;;;;;;;;;5072175;28;20232;-73
2023/12/25 02:18:08;;;;;;;13.18;8.30;;;;;;;;;;5071711;28;20213;-74
2023/12/25 02:20:35;;;;;;;17.02;10.07;;;;;;;;;;5072401;28;20203;-73
2023/12/25 02:23:06;;;;;;;21.48;10.30;;;;;;;-142.91;100.00;56616.03;5071222;28;20203;-73
2023/12/25 02:25:36;;;;;;;21.38;9.95;;;;;;;-142.91;100.00;56616.03;5076270;28;20285;-73
2023/12/25 02:28:05;;;;;;;16.48;9.13;;;;;;;;;;5072673;28;20198;-73
2023/12/25 02:30:31;;;;;;;21.25;9.80;;;;;;;;;;5072771;28;20684;-73
2023/12/25 02:33:04;;;;;;;16.50;10.02;;;;;;;;;;5072903;28;20333;-73
2023/12/25 02:35:30;;;;;;;25.25;10.40;;;;;;;;;;5073595;28;20290;-73
2023/12/25 02:37:57;;;;;;;19.25;10.65;;;;;;;;;;5072655;28;20727;-73
2023/12/25 02:40:23;;;;;;;19.95;9.65;;;;;;;;;;5072916;28;20198;-74
2023/12/25 02:42:50;;;;;;;19.13;10.45;;;;;;;;;;5075312;28;20271;-73
2023/12/25 02:45:17;;;;;;;20.73;10.10;;;;;;;;;;5093953;28;20384;-73
2023/12/25 02:47:44;;;;;;;22.20;10.75;;;;;;;;;;5092593;28;20236;-73
2023/12/25 02:50:10;;;;;;;16.60;10.82;;;;;;;-142.91;100.00;56616.03;5093232;28;20237;-73
2023/12/25 02:52:37;;;;;;;21.80;11.00;;;;;;;;;;5093072;28;20245;-73
2023/12/25 02:55:03;;;;;;;22.85;10.23;;;;;;;;;;5093063;28;20289;-73
2023/12/25 02:57:30;;;;;;;19.67;9.85;;;;;;;-142.91;100.00;56616.03;5092728;28;20280;-73
2023/12/25 02:59:56;;;;;;;18.45;9.77;;;;;;;;;;5093143;28;20237;-73
2023/12/25 03:02:24;;;;;;;22.20;10.80;;;;;;;;;;5092273;28;20702;-73
2023/12/25 03:04:50;;;;;;;22.40;10.40;;;;;;;;;;5093094;28;20663;-74
2023/12/25 03:07:17;;;;;;;23.77;10.25;;;;;;;;;;5092722;28;20241;-73
2023/12/25 03:09:44;;;;;;;20.80;10.82;;;;;;;;;;5092735;28;20284;-73
2023/12/25 03:12:10;;;;;;;19.75;11.00;;;;;;;;;;5092134;28;20224;-73
2023/12/25 03:14:36;;;;;;;21.88;12.57;;;;;;;;;;5092675;28;20297;-73
2023/12/25 03:17:03;;;;;;;24.40;13.18;;;;;;;;;;5091886;28;20276;-73
2023/12/25 03:19:30;;;;;;;24.52;11.23;;;;;;;-142.91;100.00;56616.03;5092471;28;20718;-73
2023/12/25 03:21:57;;;;;;;18.88;12.32;;;;;;;;;;5091875;28;20638;-72
2023/12/25 03:24:23;;;;;;;24.58;13.15;;;;;;;;;;5092617;28;20271;-74
2023/12/25 03:26:50;;;;;;;26.95;12.98;;;;;;;;;;5092439;28;20300;-73
2023/12/25 03:29:16;;;;;;;24.00;12.70;;;;;;;-142.91;100.00;56616.03;5092167;28;20228;-73
2023/12/25 03:31:43;;;;;;;24.33;13.57;;;;;;;;;;5092284;28;20312;-72
2023/12/25 03:34:15;;;;;;;27.83;12.32;;;;;;;;;;5091970;28;20659;-73
2023/12/25 03:36:42;;;;;;;25.27;13.75;;;;;;;;;;5092210;28;20267;-73
2023/12/25 03:39:09;;;;;;;27.08;13.27;;;;;;;;;;5089717;28;20699;-73
2023/12/25 03:41:35;;;;;;;26.10;13.32;;;;;;;-142.91;100.00;56616.03;5090461;28;20232;-72
2023/12/25 03:44:02;;;;;;;29.67;13.25;;;;;;;;;;5091473;28;20715;-73
2023/12/25 03:46:29;;;;;;;28.02;12.98;;;;;;;;;;5092084;28;20198;-73
2023/12/25 03:48:54;;;;;;;22.05;13.02;;;;;;;-142.91;100.00;56616.03;5091701;28;20289;-73
2023/12/25 03:51:21;;;;;;;21.02;12.68;;;;;;;;;;5092058;28;20660;-73
2023/12/25 03:53:49;;;;;;;19.27;13.05;;;;;;;-142.91;100.00;56616.03;5091614;28;20221;-73
2023/12/25 03:56:15;;;;;;;19.90;11.52;;;;;;;;;;5087964;28;20289;-73
2023/12/25 03:58:42;;;;;;;29.88;12.93;;;;;;;-142.91;100.00;56616.03;5086319;28;20228;-73
2023/12/25 04:01:08;;;;;;;19.25;11.23;;;;;;;;;;5092009;28;20241;-73
2023/12/25 04:03:35;;;;;;;19.77;10.90;;;;;;;;;;5091188;28;20277;-73
2023/12/25 04:06:01;;;;;;;21.42;11.73;;;;;;;;;;5091052;28;20292;-73
2023/12/25 04:08:28;;;;;;;20.33;10.20;;;;;;;;;;5089774;28;20743;-73
2023/12/25 04:10:55;;;;;;;17.92;10.00;;;;;;;;;;5091029;28;20379;-74
2023/12/25 04:13:22;;;;;;;12.85;7.90;;;;;;;;;;5089362;28;20675;-73
2023/12/25 04:15:48;;;;;;;10.90;6.32;;;;;;;;;;5090834;28;20284;-73
2023/12/25 04:18:15;;;;;;;13.85;6.68;;;;;;;;;;5090272;28;20305;-72
2023/12/25 04:20:41;;;;;;;10.30;7.03;;;;;;;-142.91;100.00;56616.03;5091832;28;20232;-73
2023/12/25 04:23:08;;;;;;;15.57;6.88;;;;;;;;;;5091934;28;20254;-72
2023/12/25 04:25:34;;;;;;;11.90;7.30;;;;;;;;;;5092305;28;20233;-72
2023/12/25 04:28:02;;;;;;;17.15;9.95;;;;;;;;;;5090900;28;20289;-72
2023/12/25 04:30:28;;;;;;;16.52;10.25;;;;;;;;;;5089716;28;20317;-75
2023/12/25 04:32:55;;;;;;;21.70;9.43;;;;;;;;;;5089364;28;20754;-72
2023/12/25 04:35:21;;;;;;;17.90;10.93;;;;;;;;;;5091222;28;20285;-72
2023/12/25 04:37:47;;;;;;;23.08;10.15;;;;;;;;;;5090807;28;20288;-72
2023/12/25 04:40:14;;;;;;;16.50;9.85;;;;;;;-142.91;100.00;56616.03;5090862;28;20729;-72
2023/12/25 04:42:41;;;;;;;21.23;10.38;;;;;;;-142.91;100.00;56616.03;5090580;28;20288;-73
2023/12/25 04:45:09;;;;;;;16.05;8.82;;;;;;;;;;5091402;28;20225;-73
2023/12/25 04:47:36;;;;;;;18.05;9.05;;;;;;;;;;5091259;28;20206;-72
2023/12/25 04:50:02;;;;;;;12.68;8.88;;;;;;;;;;5091178;28;20284;-72
2023/12/25 04:52:29;;;;;;;16.40;8.57;;;;;;;;;;5090530;28;20316;-72
2023/12/25 04:54:55;;;;;;;14.77;9.15;;;;;;;;;;5091170;28;20201;-74
2023/12/25 04:57:22;;;;;;;18.42;9.07;;;;;;;-142.91;100.00;56616.03;5090788;28;20280;-72
2023/12/25 04:59:49;;;;;;;14.68;8.63;;;;;;;-142.91;100.00;56616.03;5090905;28;20734;-73
2023/12/25 05:02:16;;;;;;;18.45;8.38;;;;;;;;;;5090106;28;20587;-72
2023/12/25 05:04:43;;;;;;;19.95;7.88;;;;;;;-142.91;100.00;56616.03;5091104;28;20237;-72
2023/12/25 05:07:10;;;;;;;11.18;8.07;;;;;;;-142.91;100.00;56616.03;5090589;28;20643;-72
2023/12/25 05:09:36;;;;;;;14.43;8.02;;;;;;;-142.91;100.00;56616.03;5090772;28;20834;-72
2023/12/25 05:12:03;;;;;;;17.58;8.88;;;;;;;;;;5089991;28;20284;-72
2023/12/25 05:14:29;;;;;;;17.52;7.53;;;;;;;;;;5090223;28;20312;-74
2023/12/25 05:16:56;;;;;;;16.63;8.88;;;;;;;-142.91;100.00;56616.03;5090290;28;20280;-73
2023/12/25 05:19:23;;;;;;;17.23;8.68;;;;;;;;;;5090414;28;20285;-74
2023/12/25 05:21:50;;;;;;;17.13;9.15;;;;;;;;;;5090525;28;20285;-73
2023/12/25 05:24:16;;;;;;;11.40;8.00;;;;;;;;;;5090408;28;20762;-74
2023/12/25 05:26:43;;;;;;;14.80;9.50;;;;;;;;;;5089903;28;20255;-73
2023/12/25 05:29:09;;;;;;;17.92;9.75;;;;;;;;;;5090272;28;20715;-73
2023/12/25 05:31:36;;;;;;;23.55;14.60;;;;;;;;;;5089797;28;20605;-73
2023/12/25 05:34:02;;;;;;;18.73;13.52;;;;;;;;;;5090194;28;20316;-74
2023/12/25 05:36:30;;;;;;;22.40;13.50;;;;;;;;;;5090111;28;20706;-74
2023/12/25 05:38:56;;;;;;;18.55;9.82;;;;;;;;;;5090401;28;20328;-74
2023/12/25 05:41:23;;;;;;;16.00;9.73;;;;;;;;;;5090304;28;20715;-73
2023/12/25 05:43:49;;;;;;;22.08;10.05;;;;;;;;;;5090216;28;20257;-74
2023/12/25 05:46:16;;;;;;;20.67;10.38;;;;;;;;;;5089630;28;20707;-74
2023/12/25 05:48:42;;;;;;;16.95;9.70;;;;;;;-142.91;100.00;56616.03;5090317;28;20244;-73
2023/12/25 05:51:09;;;;;;;21.65;12.45;;;;;;;;;;5090492;28;20288;-74
2023/12/25 05:53:36;;;;;;;32.28;17.58;;;;;;;;;;5090351;28;20325;-73
2023/12/25 05:56:03;;;;;;;34.42;16.40;;;;;;;;;;5089687;28;20293;-74
2023/12/25 05:58:30;;;;;;;29.55;15.73;;;;;;;;;;5088335;28;20654;-74
2023/12/25 06:00:57;;;;;;;23.02;13.15;;;;;;;;;;5089869;28;20296;-73
2023/12/25 06:03:23;;;;;;;24.20;11.98;;;;;;;;;;5088357;28;20784;-73
2023/12/25 06:05:50;;;;;;;24.98;12.25;;;;;;;;;;5076951;28;20292;-72
2023/12/25 06:08:16;;;;;;;16.98;10.55;;;;;;;-142.91;100.00;56616.03;5080011;28;20762;-71
2023/12/25 06:10:44;;;;;;;24.38;12.02;;;;;;;-142.91;100.00;56616.03;5087938;28;20273;-72
2023/12/25 06:13:11;;;;;;;15.95;9.85;;;;;;;;;;5087568;28;20308;-72
2023/12/25 06:15:37;;;;;;;25.13;11.73;;;;;;;;;;5088243;28;20281;-73
2023/12/25 06:18:04;;;;;;;26.13;15.10;;;;;;;;;;5087912;28;20965;-74
2023/12/25 06:20:31;;;;;;;30.83;16.75;;;;;;;-142.91;100.00;56616.03;5088784;28;20204;-74
2023/12/25 06:22:58;;;;;;;24.50;12.82;;;;;;;-142.91;100.00;56616.03;5089657;28;20643;-73
2023/12/25 06:25:24;;;;;;;19.83;10.55;;;;;;;-142.91;100.00;56616.03;5089955;28;20281;-74
2023/12/25 06:27:52;;;;;;;21.38;9.18;;;;;;;-142.91;100.00;56616.03;5090105;28;20234;-74
2023/12/25 06:30:19;;;;;;;12.25;8.27;;;;;;;;;;5090359;28;20284;-74
2023/12/25 06:32:45;;;;;;;15.30;7.93;;;;;;;;;;5089573;28;20690;-74
2023/12/25 06:35:12;;;;;;;13.50;7.05;;;;;;;-142.91;100.00;56616.03;5090195;28;20293;-74
2023/12/25 06:37:38;;;;;;;10.00;6.95;;;;;;;;;;5089721;28;20292;-74
2023/12/25 06:40:06;;;;;;;15.90;8.85;;;;;;;-142.91;100.00;56616.03;5079509;28;20305;-74
2023/12/25 06:42:32;;;;;;;16.95;9.77;;;;;;;;;;5087584;28;20206;-74
2023/12/25 06:45:00;;;;;;;19.35;10.02;;;;;;;;;;5089747;28;20742;-73
2023/12/25 06:47:26;;;;;;;13.25;8.70;;;;;;;;;;5089337;28;20296;-73
2023/12/25 06:49:53;;;;;;;16.45;8.65;;;;;;;;;;5089453;28;20289;-73
2023/12/25 06:52:19;;;;;;;15.13;7.47;;;;;;;;;;5089466;28;20225;-74
2023/12/25 06:54:46;;;;;;;15.18;7.40;;;;;;;;;;5089099;28;20308;-74
2023/12/25 06:57:14;;;;;;;19.15;8.15;;;;;;;-142.91;100.00;56616.03;5091111;28;20273;-74
2023/12/25 06:59:40;;;;;;;12.75;7.07;;;;;;;;;;5093446;28;20205;-74
2023/12/25 07:02:08;;;;;;;12.73;7.35;;;;;;;;;;5092323;28;20293;-74
2023/12/25 07:04:34;;;;;;;11.38;7.82;;;;;;;;;;5091844;28;20209;-73
2023/12/25 07:07:01;;;;;;;10.98;7.15;;;;;;;-142.91;100.00;56616.03;5092470;28;20305;-73
2023/12/25 07:09:27;;;;;;;13.70;7.38;;;;;;;;;;5093069;28;20285;-73
2023/12/25 07:11:54;;;;;;;22.95;7.95;;;;;;;;;;5092266;28;20229;-74
2023/12/25 07:14:20;;;;;;;11.85;6.97;;;;;;;;;;5092821;28;20308;-73
2023/12/25 07:16:47;;;;;;;10.27;6.25;;;;;;;-142.91;100.00;56616.03;5092726;28;20285;-73
2023/12/25 07:19:15;;;;;;;11.38;6.75;;;;;;;;;;5093458;28;20201;-73
2023/12/25 07:21:42;;;;;;;27.42;15.25;;;;;;;;;;5091882;28;20293;-73
2023/12/25 07:24:08;;;;;;;22.58;13.88;;;;;;;;;;5092937;28;20248;-73
2023/12/25 07:26:35;;;;;;;28.92;15.32;;;;;;;;;;5092492;28;20237;-73
2023/12/25 07:29:01;;;;;;;17.92;8.07;;;;;;;;;;5092592;28;20742;-74
2023/12/25 07:31:29;;;;;;;12.88;7.85;;;;;;;;;;5092449;28;20280;-72
2023/12/25 07:33:55;;;;;;;13.70;7.03;;;;;;;;;;5092655;28;20316;-74
2023/12/25 07:36:23;;;;;;;12.98;6.60;;;;;;;;;;5092228;28;20200;-73
2023/12/25 07:38:49;;;;;;;13.68;7.15;;;;;;;;;;5092783;28;20288;-75
2023/12/25 07:41:16;;;;;;;11.40;7.38;;;;;;;;;;5092175;28;20289;-73
2023/12/25 07:43:42;;;;;;;11.77;7.53;;;;;;;;;;5092358;28;20305;-73
2023/12/25 07:46:09;;;;;;;12.02;7.20;;;;;;;;;;5092052;28;20289;-73
2023/12/25 07:48:35;;;;;;;20.80;8.90;;;;;;;;;;5092105;28;20284;-73
2023/12/25 07:51:02;;;;;;;12.85;8.75;;;;;;;;;;5090659;28;20277;-73
2023/12/25 07:53:30;;;;;;;19.17;10.50;;;;;;;;;;5092241;28;20225;-73
2023/12/25 07:55:56;;;;;;;15.25;10.02;;;;;;;;;;5092028;28;20201;-73
2023/12/25 07:58:23;;;;;;;21.80;11.60;;;;;;;;;;5087655;28;20746;-74
2023/12/25 08:00:49;;;;;;;19.30;12.10;;;;;;;;;;5088843;28;20288;-75
2023/12/25 08:03:16;;;;;;;20.35;12.57;;;;;;;;;;5089765;28;20300;-75
2023/12/25 08:05:42;;;;;;;25.50;12.85;;;;;;;;;;5090389;28;20292;-75
2023/12/25 08:08:09;;;;;;;21.70;12.88;;;;;;;23.25;100.00;56616.03;5090331;28;20284;-74
2023/12/25 08:10:37;;;;;;;18.17;11.75;;;;;;;;;;5090845;28;20236;-74
2023/12/25 08:13:04;;;;;;;18.20;9.98;;;;;;;;;;5081956;28;20206;-74
2023/12/25 08:15:30;;;;;;;10.82;8.68;;;;;;;;;;5091027;28;20722;-73
2023/12/25 08:17:56;;;;;;;11.27;7.60;;;;;;;;;;5091671;28;20289;-73
2023/12/25 08:20:23;;;;;;;14.30;9.60;;;;;;;;;;5092116;28;20288;-74
2023/12/25 08:22:49;;;;;;;52.05;30.63;;;;;;;;;;5092848;28;20285;-73
2023/12/25 08:25:16;;;;;;;41.75;23.80;;;;;;;;;;5087434;28;20648;-74
2023/12/25 08:27:44;;;;;;;20.73;12.60;;;;;;;;;;5095573;28;20213;-74
2023/12/25 08:30:11;;;;;;;25.98;15.18;;;;;;;;;;5091469;28;20268;-74
2023/12/25 08:32:38;;;;;;;24.83;14.13;;;;;;;23.25;100.00;56616.03;5090840;28;20229;-73
2023/12/25 08:35:04;;;;;;;7.40;5.28;;;;;;;;;;5094264;28;20225;-73
2023/12/25 08:37:30;;;;;;;7.75;4.10;;;;;;;;;;5086310;28;20334;-73
2023/12/25 08:39:56;;;;;;;10.32;4.50;;;;;;;23.26;100.00;56616.03;5072880;28;20209;-77
2023/12/25 08:42:23;;;;;;;7.63;4.75;;;;;;;;;;5059556;28;20700;-77
2023/12/25 08:44:51;;;;;;;10.02;4.20;;;;;;;23.26;100.00;56616.03;5062534;28;20225;-76
2023/12/25 08:47:17;;;;;;;6.25;4.55;;;;;;;;;;5073138;28;20289;-76
2023/12/25 08:49:43;;;;;;;14.13;5.13;;;;;;;;;;5073138;28;20289;-75
2023/12/25 08:52:10;;;;;;;8.30;5.18;;;;;;;;;;5076594;28;20652;-76
2023/12/25 08:54:36;;;;;;;9.45;6.18;;;;;;;;;;5075265;28;20309;-75
2023/12/25 08:57:04;;;;;;;8.65;4.90;;;;;;;;;;5078752;28;20375;-75
2023/12/25 08:59:30;;;;;;;8.27;5.45;;;;;;;23.26;100.00;56616.03;5079490;28;20217;-74
2023/12/25 09:01:58;;;;;;;13.25;6.00;;;;;;;;;;5078434;28;20289;-75
2023/12/25 09:04:24;;;;;;;9.43;5.20;;;;;;;;;;5078076;28;20658;-75
2023/12/25 09:06:51;;;;;;;8.90;5.55;;;;;;;;;;5078479;28;20656;-75
2023/12/25 09:09:17;;;;;;;12.50;5.25;;;;;;;;;;5071377;28;20277;-75
2023/12/25 09:11:46;;;;;;;10.60;4.45;;;;;;;;;;5078223;28;20296;-75
2023/12/25 09:14:12;;;;;;;12.55;4.82;;;;;;;;;;5071414;28;20235;-75
2023/12/25 09:16:39;;;;;;;11.68;4.60;;;;;;;;;;5076189;28;20288;-74
2023/12/25 09:19:07;;;;;;;10.55;5.70;;;;;;;;;;5084420;28;20714;-75
2023/12/25 09:21:37;;;;;;;9.75;5.30;;;;;;;;;;5084211;28;20336;-75
2023/12/25 09:24:04;;;;;;;9.77;4.60;;;;;;;;;;5085270;28;20316;-75
2023/12/25 09:26:30;;;;;;;6.57;4.70;;;;;;;23.25;100.00;56616.03;5081478;28;20233;-74
2023/12/25 09:28:57;;;;;;;13.68;6.97;;;;;;;;;;5082837;28;20280;-76
2023/12/25 09:31:23;;;;;;;14.35;10.25;;;;;;;;;;5080604;28;20197;-75
2023/12/25 09:33:50;;;;;;;15.90;6.75;;;;;;;;;;5084410;28;20280;-74
2023/12/25 09:36:17;;;;;;;9.55;6.65;;;;;;;;;;5083918;28;20333;-75
2023/12/25 09:38:44;;;;;;;13.30;6.32;;;;;;;;;;5084077;28;20274;-75
2023/12/25 09:41:11;;;;;;;9.52;5.63;;;;;;;;;;5079461;28;20721;-74
2023/12/25 09:43:39;;;;;;;9.88;5.97;;;;;;;;;;5084380;28;20327;-75
2023/12/25 09:46:05;;;;;;;9.35;5.63;;;;;;;;;;5079350;28;20206;-76
2023/12/25 09:48:32;;;;;;;8.40;5.80;;;;;;;;;;5085058;28;20213;-75
2023/12/25 09:50:59;;;;;;;8.65;5.10;;;;;;;;;;5084066;28;20285;-75
2023/12/25 09:53:26;;;;;;;7.97;5.50;;;;;;;;;;5084191;28;20194;-76
2023/12/25 09:55:53;;;;;;;11.32;6.25;;;;;;;;;;5084103;28;20257;-76
2023/12/25 09:58:20;;;;;;;10.57;5.63;;;;;;;;;;5078690;28;20201;-76
2023/12/25 10:00:47;;;;;;;5.88;5.30;;;;;;;;;;5078369;28;20247;-76
2023/12/25 10:03:14;;;;;;;7.82;6.15;;;;;;;;;;5082562;28;20286;-74
2023/12/25 10:05:40;;;;;;;9.80;4.72;;;;;;;;;;5082578;28;20754;-75
2023/12/25 10:08:07;;;;;;;10.07;5.15;;;;;;;;;;5077411;28;20762;-75
2023/12/25 10:10:34;;;;;;;14.80;5.70;;;;;;;;;;5080853;28;20292;-74
2023/12/25 10:13:01;;;;;;;11.82;6.35;;;;;;;;;;5078065;28;20289;-74
2023/12/25 10:15:27;;;;;;;10.05;5.95;;;;;;;;;;5077993;28;20257;-73
2023/12/25 10:18:03;;;;;;;7.90;5.10;;;;;;;;;;5082552;28;20288;-73
2023/12/25 10:20:30;;;;;;;9.40;5.03;;;;;;;-142.91;100.00;56616.03;5083242;28;20198;-74
2023/12/25 10:22:58;;;;;;;10.73;5.32;;;;;;;-142.91;100.00;56616.03;5082226;28;20645;-74
2023/12/25 10:25:26;;;;;;;14.38;5.53;;;;;;;;;;5084170;28;20261;-74
2023/12/25 10:27:53;;;;;;;19.73;6.10;;;;;;;;;;5082141;28;20288;-75
2023/12/25 10:30:20;;;;;;;9.90;5.50;;;;;;;;;;5081353;28;20281;-74
2023/12/25 10:32:48;;;;;;;19.27;6.00;;;;;;;;;;5086371;28;20226;-73
2023/12/25 10:35:14;;;;;;;12.23;6.43;;;;;;;;;;5088386;28;20704;-73
2023/12/25 10:37:41;;;;;;;11.48;5.30;;;;;;;;;;5084836;28;20194;-72
2023/12/25 10:40:20;;;;;;;13.23;5.45;;;;;;;;;;5082540;28;20296;-72
2023/12/25 10:42:47;;;;;;;7.93;5.68;;;;;;;;;;5087942;28;20266;-72
2023/12/25 10:45:18;;;;;;;7.30;4.72;;;;;;;;;;5088940;28;20201;-74
2023/12/25 10:47:45;;;;;;;10.75;5.57;;;;;;;;;;5088430;28;20201;-73
2023/12/25 10:50:12;;;;;;;12.63;4.53;;;;;;;;;;5087205;28;20672;-73
2023/12/25 10:52:40;;;;;;;14.82;5.53;;;;;;;;;;5082800;28;20296;-73
2023/12/25 10:55:07;;;;;;;6.78;4.35;;;;;;;;;;5087938;28;20308;-75
2023/12/25 10:57:34;;;;;;;11.70;6.65;;;;;;;;;;5083586;28;20194;-75
2023/12/25 11:00:03;;;;;;;6.93;4.63;;;;;;;;;;5082119;28;20230;-74
2023/12/25 11:02:34;;;;;;;9.50;4.72;;;;;;;;;;5080465;28;20202;-72
2023/12/25 11:05:01;;;;;;;11.57;5.07;;;;;;;;;;5087806;28;20288;-73
2023/12/25 11:07:27;;;;;;;8.00;4.70;;;;;;;;;;5087812;28;20584;-73
2023/12/25 11:09:54;;;;;;;6.82;5.20;;;;;;;;;;5085511;28;20229;-74
2023/12/25 11:12:21;;;;;;;11.73;6.90;;;;;;;;;;5082843;28;20208;-73
2023/12/25 11:14:47;;;;;;;13.63;7.03;;;;;;;;;;5075933;28;20249;-68
2023/12/25 11:17:14;;;;;;;10.18;4.93;;;;;;;;;;5087471;28;20752;-70
2023/12/25 11:19:42;;;;;;;12.05;5.80;;;;;;;;;;5087965;28;20306;-71
2023/12/25 11:22:25;;;;;;;9.52;4.72;;;;;;;;;;5087650;28;20271;-72
2023/12/25 11:24:52;;;;;;;8.65;4.72;;;;;;;;;;5081768;28;20591;-72
2023/12/25 11:27:20;;;;;;;10.65;4.68;;;;;;;;;;5087046;28;20293;-72
2023/12/25 11:29:46;;;;;;;4.22;3.58;;;;;;;;;;5087630;28;20646;-72
2023/12/25 11:32:13;;;;;;;8.48;5.22;;;;;;;;;;5083893;28;20313;-71
2023/12/25 11:34:40;;;;;;;8.48;4.63;;;;;;;;;;5078948;28;20225;-72
2023/12/25 11:37:17;;;;;;;9.23;5.07;;;;;;;;;;5088173;28;20766;-72
2023/12/25 11:39:49;;;;;;;13.43;5.15;;;;;;;;;;5087637;28;20292;-72
2023/12/25 11:42:15;;;;;;;10.10;5.30;;;;;;;;;;5086763;28;20288;-72
2023/12/25 11:44:42;;;;;;;9.30;5.10;;;;;;;;;;5087783;28;20674;-72
2023/12/25 11:47:10;;;;;;;8.38;5.65;;;;;;;23.29;100.00;56616.03;5086717;28;20543;-71
2023/12/25 11:49:39;;;;;;;20.40;7.22;;;;;;;;;;5087159;28;20229;-71
2023/12/25 11:52:06;;;;;;;11.25;6.13;;;;;;;23.25;100.00;56616.03;5086557;28;20212;-72
2023/12/25 11:54:36;;;;;;;9.75;4.80;;;;;;;;;;5087423;28;20328;-72
2023/12/25 11:57:16;;;;;;;6.57;4.50;;;;;;;;;;5085050;28;20293;-72
2023/12/25 11:59:43;;;;;;;11.00;5.55;;;;;;;;;;5085946;28;20288;-72
2023/12/25 12:02:10;;;;;;;9.55;5.32;;;;;;;23.25;100.00;56616.03;5086428;28;20218;-71
2023/12/25 12:04:36;;;;;;;8.43;5.47;;;;;;;;;;5085628;28;20276;-72
2023/12/25 12:07:03;;;;;;;8.02;4.55;;;;;;;23.25;100.00;56616.03;5084014;28;20297;-72
2023/12/25 12:09:29;;;;;;;8.63;4.13;;;;;;;;;;5084887;28;20198;-72
2023/12/25 12:11:57;;;;;;;9.55;5.28;;;;;;;;;;5084460;28;20259;-71
2023/12/25 12:14:24;;;;;;;11.95;4.40;;;;;;;;;;5084619;28;20293;-71
2023/12/25 12:16:51;;;;;;;11.15;4.45;;;;;;;;;;5084259;28;20289;-71
2023/12/25 12:19:18;;;;;;;10.98;4.43;;;;;;;;;;5084431;28;20760;-73
2023/12/25 12:21:46;;;;;;;12.63;4.53;;;;;;;;;;5085746;28;20763;-73
2023/12/25 12:24:25;;;;;;;10.77;5.05;;;;;;;;;;5086437;28;20201;-73
2023/12/25 12:26:52;;;;;;;7.80;4.68;;;;;;;;;;5084941;28;20204;-73
2023/12/25 12:29:20;;;;;;;11.30;4.75;;;;;;;;;;5086371;28;20292;-71
2023/12/25 12:31:46;;;;;;;13.68;4.60;;;;;;;;;;5084980;28;20228;-71
2023/12/25 12:34:12;;;;;;;8.13;4.25;;;;;;;;;;5086356;28;20289;-71
2023/12/25 12:36:39;;;;;;;8.43;5.18;;;;;;;;;;5085484;28;20702;-73
2023/12/25 12:39:05;;;;;;;16.92;6.03;;;;;;;;;;5084692;28;20212;-74
2023/12/25 12:41:32;;;;;;;12.02;5.95;;;;;;;;;;5083951;28;20233;-75
2023/12/25 12:43:58;;;;;;;9.32;5.78;;;;;;;;;;5083205;28;20286;-75
2023/12/25 12:46:26;;;;;;;9.95;4.45;;;;;;;;;;5080846;28;20242;-74
2023/12/25 12:48:53;;;;;;;14.75;4.70;;;;;;;;;;5085003;28;20194;-72
2023/12/25 12:51:20;;;;;;;12.00;4.93;;;;;;;;;;5085706;28;20201;-73
2023/12/25 12:53:48;;;;;;;11.88;4.88;;;;;;;-142.91;100.00;56616.03;5084912;28;20691;-72
2023/12/25 12:56:16;;;;;;;12.88;5.22;;;;;;;23.25;100.00;56616.03;5081976;28;20217;-73
2023/12/25 12:58:42;;;;;;;7.38;5.05;;;;;;;23.26;100.00;56616.03;5081635;28;20217;-74
2023/12/25 13:01:09;;;;;;;13.00;4.63;;;;;;;23.26;100.00;56616.03;5083204;28;20206;-73
2023/12/25 13:03:37;;;;;;;10.45;5.03;;;;;;;23.25;100.00;56616.03;5081666;28;20293;-73
2023/12/25 13:06:04;;;;;;;12.15;4.78;;;;;;;;;;5081946;28;21479;-74
2023/12/25 13:08:31;;;;;;;7.43;4.38;;;;;;;;;;5081301;28;20198;-71
2023/12/25 13:10:57;;;;;;;8.77;4.35;;;;;;;;;;5083241;28;20314;-72
2023/12/25 13:13:23;;;;;;;8.63;4.65;;;;;;;;;;5084538;28;20328;-73
2023/12/25 13:15:50;;;;;;;10.95;4.57;;;;;;;;;;5083733;28;20353;-74
2023/12/25 13:18:16;;;;;;;17.63;5.13;;;;;;;;;;5084307;28;20234;-72
2023/12/25 13:20:44;;;;;;;10.35;5.32;;;;;;;;;;5084951;28;20220;-74
2023/12/25 13:23:11;;;;;;;9.68;5.47;;;;;;;;;;5085636;28;20232;-74
2023/12/25 13:25:37;;;;;;;8.35;4.78;;;;;;;;;;5085325;28;20276;-74
2023/12/25 13:28:04;;;;;;;13.93;4.43;;;;;;;;;;5084225;28;20205;-73
2023/12/25 13:30:30;;;;;;;9.15;4.47;;;;;;;;;;5085866;28;20251;-76
2023/12/25 13:32:57;;;;;;;11.18;5.45;;;;;;;;;;5084660;28;20261;-75
2023/12/25 13:35:23;;;;;;;9.27;4.05;;;;;;;;;;5085689;28;20322;-75
2023/12/25 13:37:51;;;;;;;8.68;3.90;;;;;;;;;;5083819;28;20295;-76